Terminal Aerodrome Forecast
Issued by NWS Newport/Morehead City, NC

Home | Current Version | Previous Version | Text Only | Print | Product List | Glossary On
Versions: 1 2 3 4 5 6 7 8 9 10 11 12 13 14 15 16 17
000
FTUS42 KMHX 030528
TAFEWN
TAF
KEWN 030528Z 0306/0406 00000KT 3SM BR OVC150
     FM030900 VRB03KT 4SM BR VCSH OVC010
     FM031300 VRB05KT P6SM VCTS BKN015CB
     FM032300 05005KT 4SM BR VCSH OVC015=

USA.gov is the U.S. government's official web portal to all federal, state and local government web resources and services.